Time,TemperatureF,DewpointF,PressureIn,WindDirection,WindDirectionDegrees,WindSpeedMPH,WindSpeedGustMPH,Humidity,HourlyPrecipIn,Conditions,Clouds,dailyrainin,SoftwareType,DateUTC
2013-01-27 00:00:00,29.8,29.1,30.27,East,95,0.0,0.0,97,0.00,RA,,0.00,WeatherDisplay:10.37,2013-01-27 05:00:00,
2013-01-27 00:01:00,29.7,29.0,30.27,East,95,0.0,0.0,97,0.00,RA,,0.00,WeatherDisplay:10.37,2013-01-27 05:01:00,
2013-01-27 00:02:00,29.6,28.9,30.27,East,95,0.0,0.0,97,0.00,RA,,0.00,WeatherDisplay:10.37,2013-01-27 05:02:00,
2013-01-27 00:07:00,29.0,28.0,30.27,East,95,0.0,0.0,96,0.00,RA,,0.00,WeatherDisplay:10.37,2013-01-27 05:07:00,
2013-01-27 00:12:00,28.4,27.4,30.27,East,95,0.0,0.0,96,0.00,CLR,,0.00,WeatherDisplay:10.37,2013-01-27 05:12:00,
2013-01-27 00:17:00,27.9,26.9,30.28,East,95,0.0,0.0,96,0.00,CLR,,0.00,WeatherDisplay:10.37,2013-01-27 05:17:00,
2013-01-27 00:22:00,27.6,26.6,30.28,East,95,0.0,0.0,96,0.00,CLR,,0.00,WeatherDisplay:10.37,2013-01-27 05:22:00,
2013-01-27 00:27:00,27.4,26.4,30.28,East,95,0.0,0.0,96,0.00,CLR,,0.00,WeatherDisplay:10.37,2013-01-27 05:27:00,
2013-01-27 00:32:00,27.4,26.7,30.29,East,95,0.0,0.0,97,0.00,CLR,,0.00,WeatherDisplay:10.37,2013-01-27 05:32:00,
2013-01-27 00:37:00,27.5,26.5,30.28,East,95,0.0,0.0,96,0.00,CLR,,0.00,WeatherDisplay:10.37,2013-01-27 05:37:00,
2013-01-27 00:42:00,27.5,26.5,30.28,East,95,0.0,0.0,96,0.00,CLR,,0.00,WeatherDisplay:10.37,2013-01-27 05:42:00,
2013-01-27 00:47:00,27.4,26.7,30.29,East,95,0.0,0.0,97,0.00,CLR,,0.00,WeatherDisplay:10.37,2013-01-27 05:47:00,
2013-01-27 00:52:00,27.5,26.5,30.29,East,95,0.0,0.0,96,0.00,CLR,,0.00,WeatherDisplay:10.37,2013-01-27 05:52:00,
2013-01-27 00:57:00,27.5,26.5,30.28,East,95,0.0,0.0,96,0.00,CLR,,0.00,WeatherDisplay:10.37,2013-01-27 05:57:00,
2013-01-27 01:02:00,27.5,26.8,30.29,East,95,0.0,0.0,97,0.00,CLR,,0.00,WeatherDisplay:10.37,2013-01-27 06:02:00,
2013-01-27 01:07:00,27.5,26.5,30.29,East,95,0.0,0.0,96,0.00,CLR,,0.00,WeatherDisplay:10.37,2013-01-27 06:07:00,
2013-01-27 01:12:00,27.4,26.7,30.30,East,95,0.0,0.0,97,0.00,CLR,,0.00,WeatherDisplay:10.37,2013-01-27 06:12:00,
2013-01-27 01:17:00,27.3,26.3,30.30,East,95,0.0,0.0,96,0.00,CLR,,0.00,WeatherDisplay:10.37,2013-01-27 06:17:00,
2013-01-27 01:22:00,27.1,26.1,30.30,East,95,0.0,0.0,96,0.00,CLR,,0.00,WeatherDisplay:10.37,2013-01-27 06:22:00,
2013-01-27 01:27:00,26.9,25.9,30.30,East,95,0.0,0.0,96,0.00,CLR,,0.00,WeatherDisplay:10.37,2013-01-27 06:27:00,
2013-01-27 01:32:00,26.7,25.7,30.30,East,95,0.0,0.0,96,0.00,CLR,,0.00,WeatherDisplay:10.37,2013-01-27 06:32:00,
2013-01-27 01:37:00,26.7,25.7,30.31,East,95,0.0,0.0,96,0.00,CLR,,0.00,WeatherDisplay:10.37,2013-01-27 06:37:00,
2013-01-27 01:42:00,26.6,25.6,30.31,East,95,0.0,0.0,96,0.00,CLR,,0.00,WeatherDisplay:10.37,2013-01-27 06:42:00,
2013-01-27 01:47:00,26.6,25.6,30.31,East,95,0.0,0.0,96,0.00,CLR,,0.00,WeatherDisplay:10.37,2013-01-27 06:47:00,
2013-01-27 01:52:00,26.7,25.7,30.32,East,95,0.0,0.0,96,0.00,CLR,,0.00,WeatherDisplay:10.37,2013-01-27 06:52:00,
2013-01-27 01:57:00,26.8,25.8,30.32,East,95,0.0,0.0,96,0.00,CLR,,0.00,WeatherDisplay:10.37,2013-01-27 06:57:00,
2013-01-27 02:02:00,26.8,25.8,30.32,East,95,0.0,0.0,96,0.00,CLR,,0.00,WeatherDisplay:10.37,2013-01-27 07:02:00,
2013-01-27 02:07:00,26.8,25.8,30.32,East,95,0.0,0.0,96,0.00,CLR,,0.00,WeatherDisplay:10.37,2013-01-27 07:07:00,
2013-01-27 02:13:00,26.8,25.8,30.32,East,95,0.0,0.0,96,0.00,CLR,,0.00,WeatherDisplay:10.37,2013-01-27 07:13:00,
2013-01-27 02:18:00,26.8,25.8,30.33,East,95,0.0,0.0,96,0.00,CLR,,0.00,WeatherDisplay:10.37,2013-01-27 07:18:00,
2013-01-27 02:23:00,26.7,25.7,30.32,East,95,0.0,0.0,96,0.00,CLR,,0.00,WeatherDisplay:10.37,2013-01-27 07:23:00,
2013-01-27 02:28:00,26.4,25.4,30.33,East,95,0.0,0.0,96,0.00,CLR,,0.00,WeatherDisplay:10.37,2013-01-27 07:28:00,
2013-01-27 02:33:00,26.4,25.4,30.33,East,95,0.0,0.0,96,0.00,CLR,,0.00,WeatherDisplay:10.37,2013-01-27 07:33:00,
2013-01-27 02:38:00,26.4,25.4,30.33,East,95,0.0,0.0,96,0.00,CLR,,0.00,WeatherDisplay:10.37,2013-01-27 07:38:00,
2013-01-27 02:43:00,26.4,25.4,30.33,East,95,0.0,0.0,96,0.00,CLR,,0.00,WeatherDisplay:10.37,2013-01-27 07:43:00,
2013-01-27 02:48:00,26.3,25.3,30.33,East,95,0.0,0.0,96,0.00,CLR,,0.00,WeatherDisplay:10.37,2013-01-27 07:48:00,
2013-01-27 02:53:00,26.1,25.1,30.33,East,95,0.0,0.0,96,0.00,CLR,,0.00,WeatherDisplay:10.37,2013-01-27 07:53:00,
2013-01-27 02:58:00,25.9,24.9,30.33,East,95,0.0,0.0,96,0.00,CLR,,0.00,WeatherDisplay:10.37,2013-01-27 07:58:00,
2013-01-27 03:03:00,26.0,25.0,30.34,East,95,0.0,0.0,96,0.00,CLR,,0.00,WeatherDisplay:10.37,2013-01-27 08:03:00,
2013-01-27 03:08:00,26.0,25.0,30.34,East,95,0.0,0.0,96,0.00,CLR,,0.00,WeatherDisplay:10.37,2013-01-27 08:08:00,
2013-01-27 03:13:00,26.1,25.1,30.34,East,95,0.0,0.0,96,0.00,CLR,,0.00,WeatherDisplay:10.37,2013-01-27 08:13:00,
2013-01-27 03:18:00,26.5,25.5,30.34,East,95,0.0,0.0,96,0.00,CLR,,0.00,WeatherDisplay:10.37,2013-01-27 08:18:00,
2013-01-27 03:23:00,26.5,25.5,30.34,East,95,0.0,0.0,96,0.00,CLR,,0.00,WeatherDisplay:10.37,2013-01-27 08:23:00,
2013-01-27 03:28:00,26.3,25.3,30.34,East,95,0.0,0.0,96,0.00,CLR,,0.00,WeatherDisplay:10.37,2013-01-27 08:28:00,
2013-01-27 03:33:00,26.1,25.1,30.35,East,95,0.0,0.0,96,0.00,CLR,,0.00,WeatherDisplay:10.37,2013-01-27 08:33:00,
2013-01-27 03:38:00,26.0,25.0,30.35,East,95,0.0,0.0,96,0.00,CLR,,0.00,WeatherDisplay:10.37,2013-01-27 08:38:00,
2013-01-27 03:43:00,26.0,25.0,30.35,East,95,0.0,0.0,96,0.00,CLR,,0.00,WeatherDisplay:10.37,2013-01-27 08:43:00,
2013-01-27 03:48:00,25.9,24.9,30.35,East,95,0.0,0.0,96,0.00,CLR,,0.00,WeatherDisplay:10.37,2013-01-27 08:48:00,
2013-01-27 03:53:00,25.7,24.7,30.35,East,95,0.0,0.0,96,0.00,CLR,,0.00,WeatherDisplay:10.37,2013-01-27 08:53:00,
2013-01-27 03:58:00,25.5,24.5,30.35,East,95,0.0,0.0,96,0.00,CLR,,0.00,WeatherDisplay:10.37,2013-01-27 08:58:00,
2013-01-27 04:03:00,25.3,24.3,30.35,East,95,0.0,0.0,96,0.00,CLR,,0.00,WeatherDisplay:10.37,2013-01-27 09:03:00,
2013-01-27 04:08:00,25.3,24.3,30.35,East,95,0.0,0.0,96,0.00,CLR,,0.00,WeatherDisplay:10.37,2013-01-27 09:08:00,
2013-01-27 04:13:00,25.4,24.4,30.35,East,95,0.0,0.0,96,0.00,CLR,,0.00,WeatherDisplay:10.37,2013-01-27 09:13:00,
2013-01-27 04:18:00,25.6,24.6,30.35,East,95,0.0,0.0,96,0.00,CLR,,0.00,WeatherDisplay:10.37,2013-01-27 09:18:00,
2013-01-27 04:23:00,25.6,24.6,30.35,East,95,0.0,0.0,96,0.00,CLR,,0.00,WeatherDisplay:10.37,2013-01-27 09:23:00,
2013-01-27 04:28:00,25.5,24.5,30.35,East,95,0.0,0.0,96,0.00,CLR,,0.00,WeatherDisplay:10.37,2013-01-27 09:28:00,
2013-01-27 04:33:00,25.3,24.3,30.35,East,95,0.0,0.0,96,0.00,CLR,,0.00,WeatherDisplay:10.37,2013-01-27 09:33:00,
2013-01-27 04:38:00,25.1,24.1,30.35,East,95,0.0,0.0,96,0.00,CLR,,0.00,WeatherDisplay:10.37,2013-01-27 09:38:00,
2013-01-27 04:43:00,25.2,24.2,30.36,East,95,0.0,0.0,96,0.00,CLR,,0.00,WeatherDisplay:10.37,2013-01-27 09:43:00,
2013-01-27 04:48:00,25.6,24.6,30.37,East,95,0.0,0.0,96,0.00,CLR,,0.00,WeatherDisplay:10.37,2013-01-27 09:48:00,
2013-01-27 04:53:00,25.9,24.9,30.37,East,95,0.0,0.0,96,0.00,CLR,,0.00,WeatherDisplay:10.37,2013-01-27 09:53:00,
2013-01-27 04:58:00,25.8,24.8,30.37,East,95,0.0,0.0,96,0.00,CLR,,0.00,WeatherDisplay:10.37,2013-01-27 09:58:00,
2013-01-27 05:03:00,25.8,24.8,30.37,East,95,0.0,0.0,96,0.00,CLR,,0.00,WeatherDisplay:10.37,2013-01-27 10:03:00,
2013-01-27 05:08:00,25.6,24.6,30.37,East,95,0.0,0.0,96,0.00,CLR,,0.00,WeatherDisplay:10.37,2013-01-27 10:08:00,
2013-01-27 05:13:00,25.5,24.5,30.37,East,95,0.0,0.0,96,0.00,CLR,,0.00,WeatherDisplay:10.37,2013-01-27 10:13:00,
2013-01-27 05:18:00,25.5,24.5,30.37,East,95,0.0,0.0,96,0.00,CLR,,0.00,WeatherDisplay:10.37,2013-01-27 10:18:00,
2013-01-27 05:23:00,25.6,24.6,30.37,East,95,0.0,0.0,96,0.00,CLR,,0.00,WeatherDisplay:10.37,2013-01-27 10:23:00,
2013-01-27 05:28:00,25.7,24.7,30.38,East,95,0.0,0.0,96,0.00,CLR,,0.00,WeatherDisplay:10.37,2013-01-27 10:28:00,
2013-01-27 05:33:00,25.7,24.7,30.38,East,95,0.0,0.0,96,0.00,CLR,,0.00,WeatherDisplay:10.37,2013-01-27 10:33:00,
2013-01-27 05:38:00,25.7,24.7,30.38,East,95,0.0,0.0,96,0.00,CLR,,0.00,WeatherDisplay:10.37,2013-01-27 10:38:00,
2013-01-27 05:43:00,26.2,25.2,30.38,East,95,1.2,0.0,96,0.00,CLR,,0.00,WeatherDisplay:10.37,2013-01-27 10:43:00,
2013-01-27 05:48:00,27.1,26.1,30.39,East,94,1.2,0.0,96,0.00,CLR,,0.00,WeatherDisplay:10.37,2013-01-27 10:48:00,
2013-01-27 05:53:00,27.6,26.9,30.39,East,94,0.0,0.0,97,0.00,CLR,,0.00,WeatherDisplay:10.37,2013-01-27 10:53:00,
2013-01-27 05:58:00,27.9,27.2,30.40,East,94,0.0,0.0,97,0.00,CLR,,0.00,WeatherDisplay:10.37,2013-01-27 10:58:00,
2013-01-27 06:03:00,28.3,27.6,30.39,East,94,0.0,0.0,97,0.00,CLR,,0.00,WeatherDisplay:10.37,2013-01-27 11:03:00,
2013-01-27 06:08:00,28.5,27.8,30.40,East,94,0.0,0.0,97,0.00,CLR,,0.00,WeatherDisplay:10.37,2013-01-27 11:08:00,
2013-01-27 06:13:00,28.6,27.9,30.40,East,94,0.0,0.0,97,0.00,CLR,,0.00,WeatherDisplay:10.37,2013-01-27 11:13:00,
2013-01-27 06:18:00,28.5,27.8,30.40,East,94,0.0,0.0,97,0.00,CLR,,0.00,WeatherDisplay:10.37,2013-01-27 11:18:00,
2013-01-27 06:23:00,28.3,27.6,30.40,East,94,0.0,0.0,97,0.00,CLR,,0.00,WeatherDisplay:10.37,2013-01-27 11:23:00,
2013-01-27 06:28:00,28.0,27.3,30.40,East,94,0.0,0.0,97,0.00,CLR,,0.00,WeatherDisplay:10.37,2013-01-27 11:28:00,
2013-01-27 06:33:00,27.7,26.7,30.40,East,94,0.0,0.0,96,0.00,CLR,,0.00,WeatherDisplay:10.37,2013-01-27 11:33:00,
2013-01-27 06:38:00,27.3,26.3,30.40,East,94,0.0,0.0,96,0.00,CLR,,0.00,WeatherDisplay:10.37,2013-01-27 11:38:00,
2013-01-27 06:43:00,27.1,26.1,30.41,East,94,0.0,0.0,96,0.00,CLR,,0.00,WeatherDisplay:10.37,2013-01-27 11:43:00,
2013-01-27 06:48:00,27.0,26.0,30.41,East,94,0.0,0.0,96,0.00,CLR,,0.00,WeatherDisplay:10.37,2013-01-27 11:48:00,
2013-01-27 06:53:00,26.9,25.9,30.41,East,94,0.0,0.0,96,0.00,CLR,,0.00,WeatherDisplay:10.37,2013-01-27 11:53:00,
2013-01-27 06:58:00,26.8,25.8,30.42,East,94,0.0,0.0,96,0.00,CLR,,0.00,WeatherDisplay:10.37,2013-01-27 11:58:00,
2013-01-27 07:03:00,26.7,25.7,30.42,East,94,0.0,0.0,96,0.00,CLR,,0.00,WeatherDisplay:10.37,2013-01-27 12:03:00,
2013-01-27 07:08:00,26.6,25.6,30.42,East,94,0.0,0.0,96,0.00,CLR,,0.00,WeatherDisplay:10.37,2013-01-27 12:08:00,
2013-01-27 07:13:00,26.4,25.4,30.42,East,94,0.0,0.0,96,0.00,CLR,,0.00,WeatherDisplay:10.37,2013-01-27 12:13:00,
2013-01-27 07:18:00,26.3,25.3,30.43,East,94,0.0,0.0,96,0.00,CLR,,0.00,WeatherDisplay:10.37,2013-01-27 12:18:00,
2013-01-27 07:23:00,26.2,25.2,30.43,East,94,0.0,0.0,96,0.00,CLR,,0.00,WeatherDisplay:10.37,2013-01-27 12:23:00,
2013-01-27 07:28:00,26.1,25.1,30.43,East,94,0.0,0.0,96,0.00,CLR,,0.00,WeatherDisplay:10.37,2013-01-27 12:28:00,
2013-01-27 07:33:00,26.0,25.0,30.43,East,94,0.0,0.0,96,0.00,CLR,,0.00,WeatherDisplay:10.37,2013-01-27 12:33:00,
2013-01-27 07:38:00,26.0,25.0,30.44,East,94,0.0,0.0,96,0.00,CLR,,0.00,WeatherDisplay:10.37,2013-01-27 12:38:00,
2013-01-27 07:43:00,25.8,24.8,30.44,East,94,0.0,0.0,96,0.00,CLR,,0.00,WeatherDisplay:10.37,2013-01-27 12:43:00,
2013-01-27 07:48:00,25.8,24.8,30.44,East,94,0.0,0.0,96,0.00,CLR,,0.00,WeatherDisplay:10.37,2013-01-27 12:48:00,
2013-01-27 07:53:00,25.9,24.9,30.44,East,94,0.0,0.0,96,0.00,CLR,,0.00,WeatherDisplay:10.37,2013-01-27 12:53:00,
2013-01-27 07:58:00,25.9,24.9,30.44,East,94,0.0,0.0,96,0.00,CLR,,0.00,WeatherDisplay:10.37,2013-01-27 12:58:00,
2013-01-27 08:03:00,26.0,25.0,30.44,East,94,0.0,0.0,96,0.00,CLR,,0.00,WeatherDisplay:10.37,2013-01-27 13:03:00,
2013-01-27 08:08:00,26.1,25.1,30.45,East,94,0.0,0.0,96,0.00,CLR,,0.00,WeatherDisplay:10.37,2013-01-27 13:08:00,
2013-01-27 08:13:00,26.7,26.0,30.46,East,94,1.2,0.0,97,0.00,CLR,,0.00,WeatherDisplay:10.37,2013-01-27 13:13:00,
2013-01-27 08:18:00,27.4,26.7,30.46,WNW,298,1.2,1.2,97,0.00,CLR,,0.00,WeatherDisplay:10.37,2013-01-27 13:18:00,
2013-01-27 08:23:00,28.2,27.5,30.46,WNW,298,0.0,0.0,97,0.00,CLR,,0.00,WeatherDisplay:10.37,2013-01-27 13:23:00,
2013-01-27 08:28:00,28.8,28.1,30.46,WNW,298,0.0,0.0,97,0.00,CLR,,0.00,WeatherDisplay:10.37,2013-01-27 13:28:00,
2013-01-27 08:33:00,29.4,28.7,30.46,WNW,298,0.0,0.0,97,0.00,CLR,,0.00,WeatherDisplay:10.37,2013-01-27 13:33:00,
2013-01-27 08:38:00,29.8,29.3,30.46,WNW,298,0.0,0.0,98,0.00,CLR,,0.00,WeatherDisplay:10.37,2013-01-27 13:38:00,
2013-01-27 08:43:00,30.2,29.5,30.47,WNW,298,0.0,0.0,97,0.00,CLR,,0.00,WeatherDisplay:10.37,2013-01-27 13:43:00,
2013-01-27 08:48:00,30.5,30.0,30.46,SW,221,0.0,0.0,98,0.00,CLR,,0.00,WeatherDisplay:10.37,2013-01-27 13:48:00,
2013-01-27 08:54:00,30.9,30.4,30.47,SW,221,0.0,0.0,98,0.00,CLR,,0.00,WeatherDisplay:10.37,2013-01-27 13:54:00,
2013-01-27 08:59:00,31.2,30.7,30.47,SW,219,2.3,2.3,98,0.00,CLR,,0.00,WeatherDisplay:10.37,2013-01-27 13:59:00,
2013-01-27 09:04:00,31.4,30.9,30.47,SE,126,2.3,2.3,98,0.00,CLR,,0.00,WeatherDisplay:10.37,2013-01-27 14:04:00,
2013-01-27 09:09:00,31.5,31.0,30.47,East,92,0.0,0.0,98,0.00,CLR,,0.00,WeatherDisplay:10.37,2013-01-27 14:09:00,
2013-01-27 09:14:00,31.6,31.1,30.47,ESE,121,2.3,2.3,98,0.00,CLR,,0.00,WeatherDisplay:10.37,2013-01-27 14:14:00,
2013-01-27 09:19:00,31.7,31.2,30.47,SE,142,3.5,3.5,98,0.01,RA,,0.01,WeatherDisplay:10.37,2013-01-27 14:19:00,
2013-01-27 09:24:00,31.7,31.2,30.48,SE,128,3.5,3.5,98,0.01,RA,,0.01,WeatherDisplay:10.37,2013-01-27 14:24:00,
2013-01-27 09:29:00,31.7,31.2,30.48,ESE,113,3.5,3.5,98,0.01,CLR,,0.01,WeatherDisplay:10.37,2013-01-27 14:29:00,
2013-01-27 09:34:00,31.7,31.2,30.48,ESE,102,3.5,3.5,98,0.01,CLR,,0.01,WeatherDisplay:10.37,2013-01-27 14:34:00,
2013-01-27 09:39:00,31.7,31.2,30.48,East,94,4.6,4.6,98,0.01,CLR,,0.01,WeatherDisplay:10.37,2013-01-27 14:39:00,
2013-01-27 09:44:00,31.7,31.2,30.48,ESE,106,3.5,3.5,98,0.01,CLR,,0.01,WeatherDisplay:10.37,2013-01-27 14:44:00,
2013-01-27 09:49:00,31.8,31.3,30.48,SE,146,3.5,3.5,98,0.01,CLR,,0.01,WeatherDisplay:10.37,2013-01-27 14:49:00,
2013-01-27 09:54:00,31.8,31.3,30.48,SE,126,6.9,6.9,98,0.01,CLR,,0.01,WeatherDisplay:10.37,2013-01-27 14:54:00,
2013-01-27 09:59:00,31.9,31.4,30.48,ENE,60,1.2,1.2,98,0.01,CLR,,0.01,WeatherDisplay:10.37,2013-01-27 14:59:00,
2013-01-27 10:04:00,31.9,31.4,30.48,SE,128,3.5,3.5,98,0.01,CLR,,0.01,WeatherDisplay:10.37,2013-01-27 15:04:00,
2013-01-27 10:09:00,32.0,31.5,30.48,ESE,110,3.5,3.5,98,0.01,CLR,,0.01,WeatherDisplay:10.37,2013-01-27 15:09:00,
2013-01-27 10:14:00,32.1,31.6,30.48,SE,146,3.5,3.5,98,0.01,CLR,,0.01,WeatherDisplay:10.37,2013-01-27 15:14:00,
2013-01-27 10:19:00,32.3,31.8,30.48,ESE,122,3.5,3.5,98,0.00,CLR,,0.01,WeatherDisplay:10.37,2013-01-27 15:19:00,
2013-01-27 10:24:00,32.6,32.1,30.49,East,92,1.2,1.2,98,0.00,CLR,,0.01,WeatherDisplay:10.37,2013-01-27 15:24:00,
2013-01-27 10:29:00,33.4,32.9,30.48,NNE,26,4.6,4.6,98,0.00,CLR,,0.01,WeatherDisplay:10.37,2013-01-27 15:29:00,
2013-01-27 10:34:00,33.9,33.4,30.48,SE,132,3.5,3.5,98,0.00,CLR,,0.01,WeatherDisplay:10.37,2013-01-27 15:34:00,
2013-01-27 10:39:00,34.4,33.9,30.48,ESE,107,2.3,2.3,98,0.00,CLR,,0.01,WeatherDisplay:10.37,2013-01-27 15:39:00,
2013-01-27 10:44:00,34.9,34.4,30.48,ESE,111,3.5,3.5,98,0.00,CLR,,0.01,WeatherDisplay:10.37,2013-01-27 15:44:00,
2013-01-27 10:49:00,35.7,35.2,30.48,ESE,109,1.2,1.2,98,0.00,CLR,,0.01,WeatherDisplay:10.37,2013-01-27 15:49:00,
2013-01-27 10:54:00,36.0,35.5,30.48,SSE,160,3.5,3.5,98,0.00,CLR,,0.01,WeatherDisplay:10.37,2013-01-27 15:54:00,
2013-01-27 10:59:00,36.2,35.7,30.49,SSE,152,2.0,2.0,98,0.00,CLR,,0.01,WeatherDisplay:10.37,2013-01-27 15:59:00,
2013-01-27 11:04:00,36.4,35.9,30.48,ENE,61,2.3,2.3,98,0.00,CLR,,0.01,WeatherDisplay:10.37,2013-01-27 16:04:00,
2013-01-27 11:09:00,37.1,36.6,30.48,East,80,1.2,1.2,98,0.00,CLR,,0.01,WeatherDisplay:10.37,2013-01-27 16:09:00,
2013-01-27 11:14:00,36.6,36.1,30.48,East,92,2.3,2.3,98,0.00,CLR,,0.01,WeatherDisplay:10.37,2013-01-27 16:14:00,
2013-01-27 11:19:00,36.7,36.2,30.47,East,90,4.6,4.6,98,0.00,CLR,,0.01,WeatherDisplay:10.37,2013-01-27 16:19:00,
2013-01-27 11:24:00,36.6,36.1,30.47,SE,142,5.8,5.8,98,0.00,CLR,,0.01,WeatherDisplay:10.37,2013-01-27 16:24:00,
2013-01-27 11:29:00,36.6,36.1,30.47,ESE,104,4.6,4.6,98,0.00,CLR,,0.01,WeatherDisplay:10.37,2013-01-27 16:29:00,
2013-01-27 11:34:00,37.0,36.5,30.46,SE,125,4.6,4.6,98,0.00,CLR,,0.01,WeatherDisplay:10.37,2013-01-27 16:34:00,
2013-01-27 11:39:00,37.1,36.6,30.46,NNE,14,3.0,3.0,98,0.00,CLR,,0.01,WeatherDisplay:10.37,2013-01-27 16:39:00,
2013-01-27 11:44:00,37.2,36.7,30.46,ESE,109,5.8,5.8,98,0.00,CLR,,0.01,WeatherDisplay:10.37,2013-01-27 16:44:00,
2013-01-27 11:49:00,37.1,36.6,30.46,SE,146,4.6,4.6,98,0.00,CLR,,0.01,WeatherDisplay:10.37,2013-01-27 16:49:00,
2013-01-27 11:54:00,37.5,37.2,30.47,NNE,13,4.6,4.6,99,0.00,CLR,,0.01,WeatherDisplay:10.37,2013-01-27 16:54:00,
2013-01-27 11:59:00,37.1,36.6,30.47,South,174,1.2,0.0,98,0.00,CLR,,0.01,WeatherDisplay:10.37,2013-01-27 16:59:00,
2013-01-27 12:04:00,38.0,37.7,30.48,SE,129,0.0,0.0,99,0.00,,,0.01,WeatherDisplay:10.37,2013-01-27 17:04:00,
2013-01-27 12:09:00,37.4,37.1,30.47,ENE,76,3.5,3.5,99,0.00,,,0.01,WeatherDisplay:10.37,2013-01-27 17:09:00,
2013-01-27 12:14:00,37.5,37.2,30.47,SE,129,4.6,4.6,99,0.00,,,0.01,WeatherDisplay:10.37,2013-01-27 17:14:00,
2013-01-27 12:19:00,37.6,37.3,30.47,ESE,119,4.6,4.6,99,0.00,,,0.01,WeatherDisplay:10.37,2013-01-27 17:19:00,
2013-01-27 12:24:00,38.2,37.9,30.47,ENE,59,3.5,3.5,99,0.00,,,0.01,WeatherDisplay:10.37,2013-01-27 17:24:00,
2013-01-27 12:29:00,38.8,38.5,30.47,NE,36,3.5,3.5,99,0.00,,,0.01,WeatherDisplay:10.37,2013-01-27 17:29:00,
2013-01-27 12:34:00,38.4,38.1,30.46,East,92,5.8,5.8,99,0.00,,,0.01,WeatherDisplay:10.37,2013-01-27 17:34:00,
2013-01-27 12:39:00,38.1,37.8,30.46,SSE,163,3.5,3.5,99,0.00,,,0.01,WeatherDisplay:10.37,2013-01-27 17:39:00,
2013-01-27 12:44:00,38.7,38.4,30.46,South,179,3.5,3.5,99,0.00,,,0.01,WeatherDisplay:10.37,2013-01-27 17:44:00,
2013-01-27 12:49:00,38.8,38.5,30.45,SE,144,3.5,3.5,99,0.00,,,0.01,WeatherDisplay:10.37,2013-01-27 17:49:00,
2013-01-27 12:54:00,39.3,39.0,30.45,SSW,207,3.5,3.5,99,0.00,,,0.01,WeatherDisplay:10.37,2013-01-27 17:54:00,
2013-01-27 12:59:00,40.2,39.7,30.44,WSW,254,1.2,1.2,98,0.00,,,0.01,WeatherDisplay:10.37,2013-01-27 17:59:00,
2013-01-27 13:04:00,40.4,40.1,30.44,North,5,3.5,3.5,99,0.00,,,0.01,WeatherDisplay:10.37,2013-01-27 18:04:00,
2013-01-27 13:09:00,39.5,39.0,30.43,ESE,113,5.8,5.8,98,0.00,,,0.01,WeatherDisplay:10.37,2013-01-27 18:09:00,
2013-01-27 13:14:00,39.8,39.3,30.43,North,5,2.3,2.3,98,0.00,,,0.01,WeatherDisplay:10.37,2013-01-27 18:14:00,
2013-01-27 13:19:00,39.8,39.3,30.43,ENE,78,3.0,3.0,98,0.00,,,0.01,WeatherDisplay:10.37,2013-01-27 18:19:00,
2013-01-27 13:24:00,40.1,39.8,30.42,East,101,4.6,0.0,99,0.00,,,0.01,WeatherDisplay:10.37,2013-01-27 18:24:00,
2013-01-27 13:29:00,41.0,40.7,30.42,SSW,194,4.0,4.0,99,0.00,,,0.01,WeatherDisplay:10.37,2013-01-27 18:29:00,
2013-01-27 13:34:00,41.2,40.9,30.42,SSW,194,2.0,2.0,99,0.00,,,0.01,WeatherDisplay:10.37,2013-01-27 18:34:00,
2013-01-27 13:39:00,42.1,41.8,30.42,ESE,111,3.5,3.5,99,0.00,,,0.01,WeatherDisplay:10.37,2013-01-27 18:39:00,
2013-01-27 13:44:00,42.5,42.0,30.43,SE,136,3.5,3.5,98,0.00,,,0.01,WeatherDisplay:10.37,2013-01-27 18:44:00,
2013-01-27 13:49:00,43.1,42.6,30.43,South,171,2.0,2.0,98,0.00,,,0.01,WeatherDisplay:10.37,2013-01-27 18:49:00,
2013-01-27 13:54:00,43.6,42.3,30.42,SSE,152,3.5,3.5,95,0.00,,,0.01,WeatherDisplay:10.37,2013-01-27 18:54:00,
2013-01-27 13:59:00,44.4,40.5,30.42,ENE,68,3.5,3.5,86,0.00,,,0.01,WeatherDisplay:10.37,2013-01-27 18:59:00,
2013-01-27 14:04:00,45.0,39.5,30.41,NNE,13,4.0,4.0,81,0.00,,,0.01,WeatherDisplay:10.37,2013-01-27 19:04:00,
2013-01-27 14:09:00,45.2,38.1,30.41,NNE,22,3.5,3.5,76,0.00,,,0.01,WeatherDisplay:10.37,2013-01-27 19:09:00,
2013-01-27 14:14:00,45.4,36.9,30.40,NE,51,3.5,3.5,72,0.00,,,0.01,WeatherDisplay:10.37,2013-01-27 19:14:00,
2013-01-27 14:19:00,45.6,36.7,30.40,ESE,103,1.2,1.6,71,0.00,,,0.01,WeatherDisplay:10.37,2013-01-27 19:19:00,
2013-01-27 14:24:00,46.0,36.0,30.40,ESE,108,3.0,3.0,68,0.00,,,0.01,WeatherDisplay:10.37,2013-01-27 19:24:00,
2013-01-27 14:29:00,46.4,36.0,30.40,East,84,2.3,2.3,67,0.00,,,0.01,WeatherDisplay:10.37,2013-01-27 19:29:00,
2013-01-27 14:34:00,46.7,35.6,30.40,ESE,114,2.3,2.3,65,0.00,,,0.01,WeatherDisplay:10.37,2013-01-27 19:34:00,
2013-01-27 14:39:00,46.6,34.3,30.40,East,87,4.6,4.6,62,0.00,,,0.01,WeatherDisplay:10.37,2013-01-27 19:39:00,
2013-01-27 14:44:00,46.8,34.0,30.40,SE,130,3.5,3.5,61,0.00,,,0.01,WeatherDisplay:10.37,2013-01-27 19:44:00,
2013-01-27 14:49:00,47.2,34.0,30.40,SE,131,1.0,1.0,60,0.00,,,0.01,WeatherDisplay:10.37,2013-01-27 19:49:00,
2013-01-27 14:54:00,47.2,33.6,30.40,East,87,2.0,2.0,59,0.00,,,0.01,WeatherDisplay:10.37,2013-01-27 19:54:00,
2013-01-27 14:59:00,46.9,32.9,30.40,SSE,150,8.1,8.1,58,0.00,,,0.01,WeatherDisplay:10.37,2013-01-27 19:59:00,
2013-01-27 15:04:00,46.8,33.2,30.40,SSE,153,1.2,0.0,59,0.00,,,0.01,WeatherDisplay:10.37,2013-01-27 20:04:00,
2013-01-27 15:09:00,46.9,32.9,30.39,ESE,123,3.0,3.2,58,0.00,,,0.01,WeatherDisplay:10.37,2013-01-27 20:09:00,
2013-01-27 15:14:00,47.0,32.5,30.39,SSW,197,5.8,5.8,57,0.00,,,0.01,WeatherDisplay:10.37,2013-01-27 20:14:00,
2013-01-27 15:19:00,47.2,32.7,30.39,SE,133,1.2,1.2,57,0.00,,,0.01,WeatherDisplay:10.37,2013-01-27 20:19:00,
2013-01-27 15:24:00,47.3,32.8,30.39,SE,133,4.6,4.6,57,0.00,,,0.01,WeatherDisplay:10.37,2013-01-27 20:24:00,
2013-01-27 15:29:00,47.5,33.0,30.39,NNE,28,2.0,2.0,57,0.00,,,0.01,WeatherDisplay:10.37,2013-01-27 20:29:00,
2013-01-27 15:34:00,47.6,32.7,30.39,SE,132,5.8,5.8,56,0.00,,,0.01,WeatherDisplay:10.37,2013-01-27 20:34:00,
2013-01-27 15:39:00,47.1,31.7,30.39,SSE,154,4.6,4.6,55,0.00,,,0.01,WeatherDisplay:10.37,2013-01-27 20:39:00,
2013-01-27 15:44:00,47.3,32.8,30.38,SSE,155,0.0,0.0,57,0.00,,,0.01,WeatherDisplay:10.37,2013-01-27 20:44:00,
2013-01-27 15:49:00,47.8,31.9,30.39,SE,134,3.5,3.5,54,0.00,,,0.01,WeatherDisplay:10.37,2013-01-27 20:49:00,
2013-01-27 15:55:00,47.6,32.2,30.39,SSW,192,3.5,0.0,55,0.00,,,0.01,WeatherDisplay:10.37,2013-01-27 20:55:00,
2013-01-27 16:00:00,47.6,31.8,30.39,East,81,1.2,0.0,54,0.00,,,0.01,WeatherDisplay:10.37,2013-01-27 21:00:00,
2013-01-27 16:05:00,47.7,32.3,30.39,SE,126,3.5,3.5,55,0.00,,,0.01,WeatherDisplay:10.37,2013-01-27 21:05:00,
2013-01-27 16:10:00,47.6,31.8,30.39,ESE,112,3.5,3.5,54,0.00,,,0.01,WeatherDisplay:10.37,2013-01-27 21:10:00,
2013-01-27 16:15:00,47.5,31.7,30.40,ESE,112,1.2,1.2,54,0.00,,,0.01,WeatherDisplay:10.37,2013-01-27 21:15:00,
2013-01-27 16:20:00,47.6,31.8,30.40,ESE,119,3.5,3.5,54,0.00,,,0.01,WeatherDisplay:10.37,2013-01-27 21:20:00,
2013-01-27 16:25:00,47.5,32.1,30.40,ESE,107,1.2,1.2,55,0.00,,,0.01,WeatherDisplay:10.37,2013-01-27 21:25:00,
2013-01-27 16:30:00,47.3,31.9,30.40,ESE,117,0.0,0.0,55,0.00,,,0.01,WeatherDisplay:10.37,2013-01-27 21:30:00,
2013-01-27 16:35:00,47.5,31.7,30.40,ESE,117,0.0,0.0,54,0.00,,,0.01,WeatherDisplay:10.37,2013-01-27 21:35:00,
2013-01-27 16:40:00,47.4,31.6,30.40,SSE,163,3.5,3.5,54,0.00,,,0.01,WeatherDisplay:10.37,2013-01-27 21:40:00,
2013-01-27 16:45:00,47.3,31.5,30.40,SSE,156,1.2,1.2,54,0.00,,,0.01,WeatherDisplay:10.37,2013-01-27 21:45:00,
2013-01-27 16:50:00,47.2,31.8,30.40,SSE,156,0.0,0.0,55,0.00,,,0.01,WeatherDisplay:10.37,2013-01-27 21:50:00,
2013-01-27 16:55:00,46.9,31.6,30.40,SE,136,3.5,3.5,55,0.00,,,0.01,WeatherDisplay:10.37,2013-01-27 21:55:00,
2013-01-27 17:00:00,46.7,31.4,30.40,SE,140,2.3,2.3,55,0.00,,,0.01,WeatherDisplay:10.37,2013-01-27 22:00:00,
2013-01-27 17:05:00,46.4,32.0,30.40,ESE,122,0.0,0.0,57,0.00,,,0.01,WeatherDisplay:10.37,2013-01-27 22:05:00,
2013-01-27 17:10:00,46.2,32.2,30.40,ESE,123,0.0,0.0,58,0.00,,,0.01,WeatherDisplay:10.37,2013-01-27 22:10:00,
2013-01-27 17:15:00,45.8,32.7,30.41,ESE,123,0.0,0.0,60,0.00,,,0.01,WeatherDisplay:10.37,2013-01-27 22:15:00,
2013-01-27 17:20:00,45.4,31.5,30.41,SE,125,1.2,1.2,58,0.00,,,0.01,WeatherDisplay:10.37,2013-01-27 22:20:00,
2013-01-27 17:25:00,45.1,32.0,30.41,SE,125,0.0,0.0,60,0.00,,,0.01,WeatherDisplay:10.37,2013-01-27 22:25:00,
2013-01-27 17:30:00,44.8,31.3,30.41,SE,130,0.0,0.0,59,0.00,,,0.01,WeatherDisplay:10.37,2013-01-27 22:30:00,
2013-01-27 17:35:00,44.5,32.3,30.41,SE,140,0.0,0.0,62,0.00,,,0.01,WeatherDisplay:10.37,2013-01-27 22:35:00,
2013-01-27 17:40:00,44.0,32.2,30.41,SE,140,0.0,0.0,63,0.00,,,0.01,WeatherDisplay:10.37,2013-01-27 22:40:00,
2013-01-27 17:45:00,43.3,32.3,30.41,SE,140,0.0,0.0,65,0.00,,,0.01,WeatherDisplay:10.37,2013-01-27 22:45:00,
2013-01-27 17:50:00,42.6,32.8,30.41,SE,140,0.0,0.0,68,0.00,,,0.01,WeatherDisplay:10.37,2013-01-27 22:50:00,
2013-01-27 17:55:00,41.9,32.5,30.42,SE,140,0.0,0.0,69,0.00,,,0.01,WeatherDisplay:10.37,2013-01-27 22:55:00,
2013-01-27 18:00:00,41.4,32.3,30.42,SE,140,0.0,0.0,70,0.00,,,0.01,WeatherDisplay:10.37,2013-01-27 23:00:00,
2013-01-27 18:05:00,40.9,32.6,30.42,SE,140,0.0,0.0,72,0.00,,,0.01,WeatherDisplay:10.37,2013-01-27 23:05:00,
2013-01-27 18:10:00,40.5,32.2,30.42,SE,140,0.0,0.0,72,0.00,,,0.01,WeatherDisplay:10.37,2013-01-27 23:10:00,
2013-01-27 18:15:00,40.2,31.9,30.42,SE,140,0.0,0.0,72,0.00,,,0.01,WeatherDisplay:10.37,2013-01-27 23:15:00,
2013-01-27 18:20:00,40.0,32.0,30.42,SE,140,0.0,0.0,73,0.00,,,0.01,WeatherDisplay:10.37,2013-01-27 23:20:00,
2013-01-27 18:25:00,39.9,32.3,30.42,SE,140,0.0,0.0,74,0.00,,,0.01,WeatherDisplay:10.37,2013-01-27 23:25:00,
2013-01-27 18:30:00,39.8,31.8,30.42,SE,140,0.0,0.0,73,0.00,,,0.01,WeatherDisplay:10.37,2013-01-27 23:30:00,
2013-01-27 18:35:00,39.8,32.2,30.42,SE,140,0.0,0.0,74,0.00,,,0.01,WeatherDisplay:10.37,2013-01-27 23:35:00,
2013-01-27 18:40:00,39.8,32.5,30.43,SE,140,0.0,0.0,75,0.00,,,0.01,WeatherDisplay:10.37,2013-01-27 23:40:00,
2013-01-27 18:45:00,39.8,32.5,30.43,SE,140,0.0,0.0,75,0.00,,,0.01,WeatherDisplay:10.37,2013-01-27 23:45:00,
2013-01-27 18:50:00,39.7,32.4,30.42,SE,140,0.0,0.0,75,0.00,,,0.01,WeatherDisplay:10.37,2013-01-27 23:50:00,
2013-01-27 18:55:00,39.5,32.6,30.43,SE,140,0.0,0.0,76,0.00,,,0.01,WeatherDisplay:10.37,2013-01-27 23:55:00,
2013-01-27 19:00:00,38.9,32.3,30.43,SE,140,0.0,0.0,77,0.00,,,0.01,WeatherDisplay:10.37,2013-01-28 00:00:00,
2013-01-27 19:05:00,38.5,31.9,30.43,SE,140,0.0,0.0,77,0.00,,,0.01,WeatherDisplay:10.37,2013-01-28 00:05:00,
2013-01-27 19:10:00,38.1,31.8,30.43,SE,140,0.0,0.0,78,0.00,,,0.01,WeatherDisplay:10.37,2013-01-28 00:10:00,
2013-01-27 19:15:00,37.7,31.8,30.43,SE,140,0.0,0.0,79,0.00,,,0.01,WeatherDisplay:10.37,2013-01-28 00:15:00,
2013-01-27 19:20:00,37.3,31.7,30.43,SE,140,0.0,0.0,80,0.00,,,0.01,WeatherDisplay:10.37,2013-01-28 00:20:00,
2013-01-27 19:25:00,37.0,31.1,30.43,SE,140,0.0,0.0,79,0.00,,,0.01,WeatherDisplay:10.37,2013-01-28 00:25:00,
2013-01-27 19:30:00,36.5,30.9,30.43,SE,140,0.0,0.0,80,0.00,,,0.01,WeatherDisplay:10.37,2013-01-28 00:30:00,
2013-01-27 19:35:00,35.9,30.6,30.43,SE,140,0.0,0.0,81,0.00,,,0.01,WeatherDisplay:10.37,2013-01-28 00:35:00,
2013-01-27 19:40:00,35.6,30.6,30.43,SE,140,0.0,0.0,82,0.00,,,0.01,WeatherDisplay:10.37,2013-01-28 00:40:00,
2013-01-27 19:45:00,35.4,30.8,30.43,SE,140,0.0,0.0,83,0.00,,,0.01,WeatherDisplay:10.37,2013-01-28 00:45:00,
2013-01-27 19:50:00,35.3,30.7,30.43,SE,140,0.0,0.0,83,0.00,,,0.01,WeatherDisplay:10.37,2013-01-28 00:50:00,
2013-01-27 19:55:00,35.3,30.7,30.43,SE,140,0.0,0.0,83,0.00,,,0.01,WeatherDisplay:10.37,2013-01-28 00:55:00,
2013-01-27 20:00:00,35.2,30.6,30.43,SE,140,0.0,0.0,83,0.00,,,0.01,WeatherDisplay:10.37,2013-01-28 01:00:00,
2013-01-27 20:05:00,35.2,30.6,30.43,SE,140,0.0,0.0,83,0.00,,,0.01,WeatherDisplay:10.37,2013-01-28 01:05:00,
2013-01-27 20:10:00,35.3,30.7,30.43,SE,140,0.0,0.0,83,0.00,,,0.01,WeatherDisplay:10.37,2013-01-28 01:10:00,
2013-01-27 20:15:00,35.2,30.6,30.43,SE,140,0.0,0.0,83,0.00,,,0.01,WeatherDisplay:10.37,2013-01-28 01:15:00,
2013-01-27 20:20:00,35.0,30.4,30.43,SE,140,0.0,0.0,83,0.00,,,0.01,WeatherDisplay:10.37,2013-01-28 01:20:00,
2013-01-27 20:25:00,35.0,30.4,30.43,SE,140,0.0,0.0,83,0.00,,,0.01,WeatherDisplay:10.37,2013-01-28 01:25:00,
2013-01-27 20:30:00,34.8,30.2,30.43,SE,140,0.0,0.0,83,0.00,,,0.01,WeatherDisplay:10.37,2013-01-28 01:30:00,
2013-01-27 20:35:00,34.4,30.1,30.43,SE,140,0.0,0.0,84,0.00,,,0.01,WeatherDisplay:10.37,2013-01-28 01:35:00,
2013-01-27 20:40:00,33.9,29.9,30.43,SE,140,0.0,0.0,85,0.00,,,0.01,WeatherDisplay:10.37,2013-01-28 01:40:00,
2013-01-27 20:45:00,34.1,30.1,30.42,SE,140,0.0,0.0,85,0.00,,,0.01,WeatherDisplay:10.37,2013-01-28 01:45:00,
2013-01-27 20:50:00,34.4,30.1,30.42,SE,140,2.3,2.3,84,0.00,,,0.01,WeatherDisplay:10.37,2013-01-28 01:50:00,
2013-01-27 20:55:00,34.9,30.3,30.42,SE,140,2.3,2.3,83,0.00,,,0.01,WeatherDisplay:10.37,2013-01-28 01:55:00,
2013-01-27 21:00:00,35.7,30.4,30.42,SE,140,1.2,0.0,81,0.00,,,0.01,WeatherDisplay:10.37,2013-01-28 02:00:00,
2013-01-27 21:05:00,35.7,30.4,30.42,SE,140,0.0,0.0,81,0.00,,,0.01,WeatherDisplay:10.37,2013-01-28 02:05:00,
2013-01-27 21:10:00,35.6,30.0,30.42,SE,140,0.0,0.0,80,0.00,,,0.01,WeatherDisplay:10.37,2013-01-28 02:10:00,
2013-01-27 21:15:00,35.4,30.1,30.42,SE,140,0.0,0.0,81,0.00,,,0.01,WeatherDisplay:10.37,2013-01-28 02:15:00,
2013-01-27 21:20:00,35.2,30.0,30.43,SE,140,0.0,0.0,81,0.00,,,0.01,WeatherDisplay:10.37,2013-01-28 02:20:00,
2013-01-27 21:25:00,34.9,29.7,30.43,SE,140,0.0,0.0,81,0.00,,,0.01,WeatherDisplay:10.37,2013-01-28 02:25:00,
2013-01-27 21:30:00,34.7,29.8,30.44,SE,140,0.0,0.0,82,0.00,,,0.01,WeatherDisplay:10.37,2013-01-28 02:30:00,
2013-01-27 21:35:00,34.8,29.6,30.44,SE,140,0.0,0.0,81,0.00,,,0.01,WeatherDisplay:10.37,2013-01-28 02:35:00,
2013-01-27 21:40:00,34.8,29.6,30.44,SE,140,0.0,0.0,81,0.00,,,0.01,WeatherDisplay:10.37,2013-01-28 02:40:00,
2013-01-27 21:45:00,35.2,29.6,30.44,SE,135,1.2,1.2,80,0.00,,,0.01,WeatherDisplay:10.37,2013-01-28 02:45:00,
2013-01-27 21:50:00,35.4,29.5,30.43,SE,135,2.3,2.3,79,0.00,,,0.01,WeatherDisplay:10.37,2013-01-28 02:50:00,
2013-01-27 21:55:00,35.2,29.3,30.43,SE,135,0.0,0.0,79,0.00,,,0.01,WeatherDisplay:10.37,2013-01-28 02:55:00,
2013-01-27 22:00:00,35.4,29.5,30.44,SE,135,0.0,0.0,79,0.00,,,0.01,WeatherDisplay:10.37,2013-01-28 03:00:00,
2013-01-27 22:05:00,35.3,29.4,30.43,SE,134,0.0,0.0,79,0.00,,,0.01,WeatherDisplay:10.37,2013-01-28 03:05:00,
2013-01-27 22:10:00,35.2,29.3,30.43,SE,134,0.0,0.0,79,0.00,,,0.01,WeatherDisplay:10.37,2013-01-28 03:10:00,
2013-01-27 22:15:00,35.0,29.1,30.43,SE,135,0.0,0.0,79,0.00,,,0.01,WeatherDisplay:10.37,2013-01-28 03:15:00,
2013-01-27 22:20:00,34.8,29.3,30.43,SE,134,0.0,0.0,80,0.00,,,0.01,WeatherDisplay:10.37,2013-01-28 03:20:00,
2013-01-27 22:25:00,34.6,29.1,30.43,SE,134,0.0,0.0,80,0.00,,,0.01,WeatherDisplay:10.37,2013-01-28 03:25:00,
2013-01-27 22:30:00,34.4,29.2,30.43,SE,135,0.0,0.0,81,0.00,,,0.01,WeatherDisplay:10.37,2013-01-28 03:30:00,
2013-01-27 22:35:00,34.3,29.1,30.43,SE,134,0.0,0.0,81,0.00,,,0.01,WeatherDisplay:10.37,2013-01-28 03:35:00,
2013-01-27 22:40:00,34.2,29.0,30.43,SE,135,0.0,0.0,81,0.00,,,0.01,WeatherDisplay:10.37,2013-01-28 03:40:00,
2013-01-27 22:45:00,34.4,28.9,30.42,SE,135,1.2,1.2,80,0.00,,,0.01,WeatherDisplay:10.37,2013-01-28 03:45:00,
2013-01-27 22:50:00,34.4,29.2,30.42,SE,134,1.2,1.2,81,0.00,,,0.01,WeatherDisplay:10.37,2013-01-28 03:50:00,
2013-01-27 22:55:00,34.4,28.9,30.42,SE,135,1.0,1.0,80,0.00,,,0.01,WeatherDisplay:10.37,2013-01-28 03:55:00,
2013-01-27 23:00:00,34.7,28.9,30.42,SE,134,0.0,0.0,79,0.00,,,0.01,WeatherDisplay:10.37,2013-01-28 04:00:00,
2013-01-27 23:05:00,34.9,29.0,30.42,SE,135,0.0,0.0,79,0.00,,,0.01,WeatherDisplay:10.37,2013-01-28 04:05:00,
2013-01-27 23:10:00,35.0,29.1,30.42,SE,135,0.0,0.0,79,0.00,,,0.01,WeatherDisplay:10.37,2013-01-28 04:10:00,
2013-01-27 23:15:00,34.9,28.7,30.42,SE,135,0.0,0.0,78,0.00,,,0.01,WeatherDisplay:10.37,2013-01-28 04:15:00,
2013-01-27 23:20:00,34.8,28.6,30.42,SE,135,0.0,0.0,78,0.00,,,0.01,WeatherDisplay:10.37,2013-01-28 04:20:00,
2013-01-27 23:25:00,34.4,28.6,30.41,SE,135,0.0,0.0,79,0.00,,,0.01,WeatherDisplay:10.37,2013-01-28 04:25:00,
2013-01-27 23:30:00,34.4,28.6,30.42,SE,135,0.0,0.0,79,0.00,,,0.01,WeatherDisplay:10.37,2013-01-28 04:30:00,
2013-01-27 23:35:00,34.4,28.6,30.41,SE,134,0.0,0.0,79,0.00,,,0.01,WeatherDisplay:10.37,2013-01-28 04:35:00,
2013-01-27 23:40:00,34.1,28.6,30.41,SE,135,0.0,0.0,80,0.00,,,0.01,WeatherDisplay:10.37,2013-01-28 04:40:00,
2013-01-27 23:45:00,33.7,28.8,30.41,SE,135,0.0,0.0,82,0.00,,,0.01,WeatherDisplay:10.37,2013-01-28 04:45:00,
2013-01-27 23:50:00,33.2,28.3,30.41,SE,135,0.0,0.0,82,0.00,,,0.01,WeatherDisplay:10.37,2013-01-28 04:50:00,
2013-01-27 23:55:00,32.9,28.3,30.41,SE,135,0.0,0.0,83,0.00,,,0.01,WeatherDisplay:10.37,2013-01-28 04:55:00,